createdAt,value
2022-10-18T00:00:54.315Z,28.12
2022-10-18T00:03:21.541Z,29.20
2022-10-18T00:05:49.094Z,27.08
2022-10-18T00:08:17.201Z,24.00
2022-10-18T00:10:44.496Z,21.02
2022-10-18T00:13:11.353Z,21.37
2022-10-18T00:15:38.268Z,23.27
2022-10-18T00:18:05.398Z,24.05
2022-10-18T00:20:32.253Z,23.70
2022-10-18T00:22:59.142Z,28.70
2022-10-18T00:25:26.252Z,25.00
2022-10-18T00:27:53.087Z,25.67
2022-10-18T00:30:19.950Z,24.33
2022-10-18T00:32:47.077Z,25.02
2022-10-18T00:35:13.974Z,22.98
2022-10-18T00:37:40.840Z,25.05
2022-10-18T00:40:08.397Z,25.83
2022-10-18T00:42:36.421Z,24.42
2022-10-18T00:45:16.418Z,21.95
2022-10-18T00:47:46.127Z,25.00
2022-10-18T00:50:13.522Z,23.50
2022-10-18T00:52:50.190Z,29.98
2022-10-18T00:55:17.753Z,21.65
2022-10-18T00:57:46.384Z,22.55
2022-10-18T01:00:14.013Z,19.10
2022-10-18T01:02:42.358Z,19.87
2022-10-18T01:05:11.633Z,24.35
2022-10-18T01:08:01.717Z,23.67
2022-10-18T01:10:58.122Z,22.25
2022-10-18T01:14:01.239Z,17.33
2022-10-18T01:16:39.031Z,22.58
2022-10-18T01:19:30.917Z,29.42
2022-10-18T01:22:04.453Z,22.33
2022-10-18T01:24:55.383Z,22.92
2022-10-18T01:27:36.268Z,25.17
2022-10-18T01:30:42.098Z,20.45
2022-10-18T01:33:28.090Z,23.87
2022-10-18T01:36:04.018Z,23.50
2022-10-18T01:38:32.246Z,21.67
2022-10-18T01:41:00.586Z,23.77
2022-10-18T01:43:28.737Z,23.17
2022-10-18T01:45:56.774Z,22.90
2022-10-18T01:48:23.948Z,19.85
2022-10-18T01:50:52.325Z,21.12
2022-10-18T01:53:30.282Z,19.95
2022-10-18T01:56:10.682Z,24.87
2022-10-18T01:58:45.116Z,26.58
2022-10-18T02:01:20.059Z,22.25
2022-10-18T02:03:48.014Z,23.67
2022-10-18T02:06:22.095Z,22.62
2022-10-18T02:08:57.597Z,25.73
2022-10-18T02:11:25.018Z,25.30
2022-10-18T02:13:55.070Z,25.23
2022-10-18T02:16:26.134Z,19.87
2022-10-18T02:19:20.828Z,27.42
2022-10-18T02:21:48.528Z,30.25
2022-10-18T02:24:19.469Z,21.08
2022-10-18T02:26:49.119Z,23.52
2022-10-18T02:29:19.338Z,24.70
2022-10-18T02:31:50.359Z,25.70
2022-10-18T02:34:27.779Z,24.55
2022-10-18T02:36:58.517Z,36.75
2022-10-18T02:39:30.415Z,25.15
2022-10-18T02:41:57.801Z,29.02
2022-10-18T02:44:24.720Z,28.08
2022-10-18T02:46:52.114Z,24.95
2022-10-18T02:49:18.966Z,29.48
2022-10-18T02:51:48.598Z,31.05
2022-10-18T02:54:18.798Z,25.70
2022-10-18T02:56:48.787Z,22.07
2022-10-18T02:59:15.897Z,26.17
2022-10-18T03:01:43.989Z,29.33
2022-10-18T03:04:11.007Z,22.58
2022-10-18T03:06:38.114Z,25.17
2022-10-18T03:09:05.919Z,26.25
2022-10-18T03:11:32.862Z,26.23
2022-10-18T03:13:59.987Z,29.65
2022-10-18T03:16:27.416Z,24.65
2022-10-18T03:18:54.249Z,27.37
2022-10-18T03:21:21.382Z,22.95
2022-10-18T03:23:48.226Z,38.40
2022-10-18T03:26:15.070Z,24.60
2022-10-18T03:28:42.216Z,24.05
2022-10-18T03:31:09.093Z,30.85
2022-10-18T03:33:35.968Z,27.83
2022-10-18T03:36:03.198Z,26.35
2022-10-18T03:38:30.180Z,29.35
2022-10-18T03:40:57.099Z,25.95
2022-10-18T03:43:24.231Z,30.48
2022-10-18T03:45:51.407Z,32.78
2022-10-18T03:48:18.278Z,28.50
2022-10-18T03:50:45.489Z,30.92
2022-10-18T03:53:12.399Z,39.67
2022-10-18T03:55:39.380Z,27.08
2022-10-18T03:58:06.696Z,25.73
2022-10-18T04:00:33.647Z,27.37
2022-10-18T04:03:00.770Z,32.40
2022-10-18T04:05:30.634Z,31.92
2022-10-18T04:07:57.923Z,31.13
2022-10-18T04:10:25.557Z,29.73
2022-10-18T04:12:52.435Z,26.70
2022-10-18T04:15:19.380Z,45.67
2022-10-18T04:17:46.755Z,36.28
2022-10-18T04:20:13.764Z,37.53
2022-10-18T04:22:40.704Z,34.35
2022-10-18T04:25:07.994Z,29.10
2022-10-18T04:27:35.619Z,31.42
2022-10-18T04:30:02.634Z,37.22
2022-10-18T04:32:29.794Z,31.00
2022-10-18T04:34:56.663Z,33.65
2022-10-18T04:37:23.567Z,35.22
2022-10-18T04:39:53.510Z,33.80
2022-10-18T04:42:21.650Z,37.13
2022-10-18T04:44:48.572Z,44.72
2022-10-18T04:47:16.373Z,33.72
2022-10-18T04:49:43.274Z,36.10
2022-10-18T04:52:10.198Z,37.40
2022-10-18T04:54:37.385Z,31.85
2022-10-18T04:57:04.291Z,32.40
2022-10-18T04:59:31.140Z,32.60
2022-10-18T05:01:58.331Z,36.78
2022-10-18T05:04:25.394Z,28.02
2022-10-18T05:06:52.260Z,25.50
2022-10-18T05:09:19.475Z,34.58
2022-10-18T05:11:46.321Z,33.65
2022-10-18T05:14:15.480Z,34.50
2022-10-18T05:16:42.587Z,31.58
2022-10-18T05:19:09.875Z,27.20
2022-10-18T05:21:36.724Z,31.67
2022-10-18T05:24:04.162Z,28.83
2022-10-18T05:26:31.046Z,34.25
2022-10-18T05:28:58.002Z,38.95
2022-10-18T05:31:25.179Z,33.83
2022-10-18T05:33:52.039Z,41.67
2022-10-18T05:36:18.928Z,49.85
2022-10-18T05:38:47.920Z,46.83
2022-10-18T05:41:14.830Z,34.97
2022-10-18T05:43:41.694Z,40.00
2022-10-18T05:46:13.646Z,35.92
2022-10-18T05:48:43.979Z,33.63
2022-10-18T05:51:11.559Z,38.13
2022-10-18T05:53:38.564Z,35.72
2022-10-18T05:56:06.365Z,32.13
2022-10-18T05:58:34.054Z,28.67
2022-10-18T06:01:01.996Z,34.08
2022-10-18T06:03:30.864Z,43.35
2022-10-18T06:06:07.249Z,45.40
2022-10-18T06:08:35.072Z,38.85
2022-10-18T06:11:15.248Z,43.28
2022-10-18T06:13:43.663Z,27.13
2022-10-18T06:16:11.711Z,36.20
2022-10-18T06:18:38.665Z,30.70
2022-10-18T06:21:06.388Z,27.00
2022-10-18T06:23:33.278Z,37.00
2022-10-18T06:26:01.951Z,28.23
2022-10-18T06:28:29.776Z,36.03
2022-10-18T06:30:57.672Z,34.80
2022-10-18T06:33:24.845Z,33.95
2022-10-18T06:36:03.474Z,44.03
2022-10-18T06:38:30.474Z,35.67
2022-10-18T06:40:58.305Z,34.85
2022-10-18T06:43:25.640Z,32.47
2022-10-18T06:45:53.047Z,33.50
2022-10-18T06:50:54.514Z,27.70
2022-10-18T06:53:21.664Z,39.40
2022-10-18T06:55:48.506Z,31.77
2022-10-18T06:58:15.411Z,28.30
2022-10-18T07:00:42.581Z,36.83
2022-10-18T07:03:09.473Z,38.78
2022-10-18T07:05:36.324Z,26.52
2022-10-18T07:08:03.644Z,35.20
2022-10-18T07:10:30.484Z,26.58
2022-10-18T07:13:13.525Z,29.85
2022-10-18T07:15:44.473Z,35.97
2022-10-18T07:18:11.390Z,22.70
2022-10-18T07:20:38.248Z,31.10
2022-10-18T07:23:08.444Z,24.00
2022-10-18T07:25:35.832Z,22.70
2022-10-18T07:28:02.787Z,24.75
2022-10-18T07:30:29.937Z,31.25
2022-10-18T07:32:56.804Z,22.42
2022-10-18T07:35:23.731Z,18.42
2022-10-18T07:37:50.903Z,23.92
2022-10-18T07:40:17.826Z,28.92
2022-10-18T07:42:44.679Z,22.58
2022-10-18T07:45:12.646Z,22.73
2022-10-18T07:47:40.096Z,19.92
2022-10-18T07:50:07.610Z,28.95
2022-10-18T07:52:34.750Z,23.70
2022-10-18T07:55:01.609Z,19.15
2022-10-18T07:57:28.464Z,18.52
2022-10-18T07:59:57.065Z,20.73
2022-10-18T08:02:24.331Z,16.00
2022-10-18T08:04:51.454Z,23.15
2022-10-18T08:07:18.327Z,17.80
2022-10-18T08:09:45.228Z,19.77
2022-10-18T08:12:12.401Z,18.87
2022-10-18T08:14:39.294Z,21.75
2022-10-18T08:17:06.140Z,18.80
2022-10-18T08:19:33.246Z,21.10
2022-10-18T08:22:00.138Z,22.40
2022-10-18T08:24:26.983Z,19.65
2022-10-18T08:26:54.144Z,21.73
2022-10-18T08:29:24.941Z,22.08
2022-10-18T08:31:54.054Z,15.27
2022-10-18T08:34:20.918Z,20.42
2022-10-18T08:36:47.772Z,17.95
2022-10-18T08:39:18.057Z,22.20
2022-10-18T08:42:10.281Z,20.35
2022-10-18T08:44:44.852Z,15.32
2022-10-18T08:47:17.964Z,19.75
2022-10-18T08:50:07.177Z,21.85
2022-10-18T08:53:04.591Z,16.90
2022-10-18T08:55:54.982Z,16.83
2022-10-18T08:58:24.743Z,17.52
2022-10-18T09:01:07.023Z,19.70
2022-10-18T09:03:55.407Z,18.98
2022-10-18T09:06:36.040Z,20.60
2022-10-18T09:12:21.474Z,14.13
2022-10-18T09:15:06.613Z,19.40
2022-10-18T09:18:02.321Z,15.68
2022-10-18T09:21:07.999Z,19.62
2022-10-18T09:24:14.494Z,21.15
2022-10-18T09:27:09.104Z,12.65
2022-10-18T09:30:28.390Z,20.58
2022-10-18T09:33:33.648Z,14.90
2022-10-18T09:36:23.010Z,18.73
2022-10-18T09:39:18.534Z,13.45
2022-10-18T09:42:16.750Z,13.88
2022-10-18T09:45:39.524Z,13.90
2022-10-18T09:48:30.394Z,13.70
2022-10-18T09:51:21.973Z,19.50
2022-10-18T09:54:25.895Z,15.90
2022-10-18T09:57:21.589Z,33.42
2022-10-18T10:00:21.051Z,23.33
2022-10-18T10:03:15.670Z,17.10
2022-10-18T10:06:17.345Z,19.23
2022-10-18T10:09:26.667Z,23.42
2022-10-18T10:12:26.608Z,10.75
2022-10-18T10:15:28.205Z,16.00
2022-10-18T10:18:21.180Z,42.75
2022-10-18T10:21:13.834Z,15.52
2022-10-18T10:24:00.465Z,11.05
2022-10-18T10:26:50.566Z,12.73
2022-10-18T10:29:47.378Z,20.42
2022-10-18T10:32:49.575Z,14.18
2022-10-18T10:35:54.287Z,21.95
2022-10-18T10:38:41.373Z,16.40
2022-10-18T10:41:28.092Z,13.07
2022-10-18T10:44:35.974Z,14.85
2022-10-18T10:47:32.706Z,14.48
2022-10-18T10:50:25.828Z,13.68
2022-10-18T10:53:36.375Z,29.33
2022-10-18T10:56:36.018Z,15.57
2022-10-18T10:59:24.244Z,13.25
2022-10-18T11:02:14.255Z,8.57
2022-10-18T11:05:23.788Z,9.93
2022-10-18T11:08:12.291Z,10.82
2022-10-18T11:11:05.250Z,10.23
2022-10-18T11:14:13.586Z,18.90
2022-10-18T11:16:56.925Z,8.00
2022-10-18T11:19:38.925Z,11.75
2022-10-18T11:22:12.023Z,10.60
2022-10-18T11:24:39.607Z,11.75
2022-10-18T11:27:13.471Z,12.13
2022-10-18T11:29:54.242Z,13.52
2022-10-18T11:32:30.313Z,11.35
2022-10-18T11:35:14.995Z,13.98
2022-10-18T11:37:53.676Z,8.85
2022-10-18T11:40:41.819Z,11.77
2022-10-18T11:43:30.106Z,11.57
2022-10-18T11:46:28.037Z,8.30
2022-10-18T11:49:08.811Z,7.90
2022-10-18T11:52:07.856Z,8.80
2022-10-18T11:54:56.871Z,9.82
2022-10-18T11:57:51.698Z,16.33
2022-10-18T12:00:29.046Z,11.15
2022-10-18T12:03:12.699Z,13.85
2022-10-18T12:05:41.716Z,10.52
2022-10-18T12:08:13.963Z,10.40
2022-10-18T12:11:03.915Z,7.32
2022-10-18T12:13:49.379Z,7.32
2022-10-18T12:16:18.267Z,27.55
2022-10-18T12:18:54.981Z,8.73
2022-10-18T12:21:25.752Z,6.47
2022-10-18T12:24:00.121Z,16.00
2022-10-18T12:26:28.377Z,16.30
2022-10-18T12:29:17.584Z,19.95
2022-10-18T12:31:51.220Z,15.65
2022-10-18T12:34:27.200Z,9.70
2022-10-18T12:37:09.344Z,14.65
2022-10-18T12:39:44.140Z,8.18
2022-10-18T12:42:30.051Z,7.95
2022-10-18T12:45:02.494Z,13.82
2022-10-18T12:47:30.433Z,9.32
2022-10-18T12:50:00.328Z,7.97
2022-10-18T12:52:29.849Z,8.48
2022-10-18T12:55:06.081Z,6.35
2022-10-18T12:57:51.595Z,7.40
2022-10-18T13:00:30.674Z,11.02
2022-10-18T13:03:12.722Z,10.75
2022-10-18T13:05:54.728Z,7.05
2022-10-18T13:08:28.394Z,25.48
2022-10-18T13:11:01.235Z,8.43
2022-10-18T13:13:51.736Z,8.27
2022-10-18T13:19:18.643Z,11.68
2022-10-18T13:22:10.360Z,7.78
2022-10-18T13:24:39.535Z,8.30
2022-10-18T13:27:37.644Z,6.60
2022-10-18T13:30:40.359Z,13.57
2022-10-18T13:33:30.837Z,12.07
2022-10-18T13:36:01.935Z,10.70
2022-10-18T13:38:37.626Z,11.27
2022-10-18T13:41:07.612Z,7.82
2022-10-18T13:43:52.926Z,16.15
2022-10-18T13:46:33.092Z,9.75
2022-10-18T13:49:01.498Z,13.85
2022-10-18T13:51:35.368Z,8.73
2022-10-18T13:54:04.990Z,14.18
2022-10-18T13:56:53.525Z,14.07
2022-10-18T14:02:22.425Z,13.88
2022-10-18T14:05:34.531Z,9.48
2022-10-18T14:08:12.320Z,14.45
2022-10-18T14:11:03.002Z,9.05
2022-10-18T14:13:43.970Z,9.45
2022-10-18T14:16:27.071Z,11.30
2022-10-18T14:19:00.954Z,10.68
2022-10-18T14:21:34.454Z,16.55
2022-10-18T14:24:01.435Z,18.23
2022-10-18T14:26:29.443Z,12.95
2022-10-18T14:29:06.947Z,11.40
2022-10-18T14:31:34.800Z,12.52
2022-10-18T14:34:01.736Z,9.90
2022-10-18T14:36:41.060Z,11.93
2022-10-18T14:39:18.696Z,10.70
2022-10-18T14:42:03.619Z,11.93
2022-10-18T14:44:32.171Z,14.10
2022-10-18T14:47:01.426Z,9.73
2022-10-18T14:49:28.494Z,11.18
2022-10-18T14:51:57.906Z,21.02
2022-10-18T14:54:31.838Z,18.08
2022-10-18T14:57:00.802Z,12.55
2022-10-18T14:59:30.504Z,9.88
2022-10-18T15:02:01.863Z,15.15
2022-10-18T15:04:35.276Z,13.62
2022-10-18T15:07:04.190Z,11.48
2022-10-18T15:09:33.845Z,8.45
2022-10-18T15:12:02.571Z,13.07
2022-10-18T15:14:30.121Z,11.85
2022-10-18T15:17:03.853Z,16.35
2022-10-18T15:19:42.225Z,12.90
2022-10-18T15:22:30.801Z,11.50
2022-10-18T15:25:18.561Z,20.85
2022-10-18T15:27:48.172Z,16.92
2022-10-18T15:30:24.691Z,12.80
2022-10-18T15:32:55.070Z,15.20
2022-10-18T15:35:32.082Z,17.48
2022-10-18T15:38:03.547Z,31.50
2022-10-18T15:40:33.570Z,30.95
2022-10-18T15:43:03.754Z,23.23
2022-10-18T15:45:33.833Z,15.35
2022-10-18T15:48:06.998Z,21.80
2022-10-18T15:50:41.466Z,35.10
2022-10-18T15:53:42.744Z,34.72
2022-10-18T15:56:28.861Z,177.90
2022-10-18T15:58:57.382Z,81.43
2022-10-18T16:01:33.425Z,39.80
2022-10-18T16:04:01.327Z,32.50
2022-10-18T16:06:28.514Z,56.03
2022-10-18T16:08:55.594Z,33.67
2022-10-18T16:11:26.213Z,36.50
2022-10-18T16:13:56.385Z,29.98
2022-10-18T16:16:28.115Z,27.75
2022-10-18T16:18:55.451Z,57.83
2022-10-18T16:21:25.533Z,61.15
2022-10-18T16:23:52.909Z,58.22
2022-10-18T16:26:20.526Z,56.72
2022-10-18T16:28:48.117Z,74.47
2022-10-18T16:31:20.611Z,66.45
2022-10-18T16:33:48.590Z,61.80
2022-10-18T16:36:21.303Z,57.17
2022-10-18T16:38:49.515Z,69.75
2022-10-18T16:43:45.531Z,58.92
2022-10-18T16:46:17.795Z,58.53
2022-10-18T16:48:45.938Z,65.97
2022-10-18T16:51:13.282Z,62.58
2022-10-18T16:53:40.148Z,61.53
2022-10-18T16:56:13.942Z,65.60
2022-10-18T16:58:41.357Z,71.03
2022-10-18T17:01:12.359Z,71.30
2022-10-18T17:03:39.362Z,62.72
2022-10-18T17:06:06.302Z,78.35
2022-10-18T17:08:33.490Z,73.72
2022-10-18T17:11:01.710Z,62.05
2022-10-18T17:13:28.609Z,72.15
2022-10-18T17:15:55.795Z,78.60
2022-10-18T17:18:26.463Z,73.45
2022-10-18T17:20:53.582Z,77.03
2022-10-18T17:23:20.687Z,78.00
2022-10-18T17:25:59.146Z,72.32
2022-10-18T17:28:34.251Z,72.55
2022-10-18T17:31:01.167Z,76.70
2022-10-18T17:33:28.015Z,93.85
2022-10-18T17:35:55.146Z,92.20
2022-10-18T17:38:22.018Z,82.95
2022-10-18T17:40:48.901Z,116.88
2022-10-18T17:43:15.997Z,116.28
2022-10-18T17:45:48.116Z,132.68
2022-10-18T17:48:17.483Z,232.10
2022-10-18T17:50:44.417Z,234.32
2022-10-18T17:53:12.886Z,141.82
2022-10-18T17:55:40.342Z,139.37
2022-10-18T17:58:07.204Z,142.68
2022-10-18T18:00:34.336Z,129.02
2022-10-18T18:03:01.982Z,151.80
2022-10-18T18:05:33.534Z,144.07
2022-10-18T18:08:03.807Z,156.90
2022-10-18T18:10:34.977Z,136.50
2022-10-18T18:13:02.524Z,121.40
2022-10-18T18:15:29.422Z,110.57
2022-10-18T18:17:57.849Z,111.10
2022-10-18T18:20:25.986Z,124.15
2022-10-18T18:22:53.039Z,116.32
2022-10-18T18:25:20.253Z,121.65
2022-10-18T18:27:47.165Z,119.15
2022-10-18T18:30:15.496Z,110.20
2022-10-18T18:32:42.685Z,116.53
2022-10-18T18:35:10.219Z,115.15
2022-10-18T18:37:37.214Z,97.95
2022-10-18T18:40:04.581Z,96.65
2022-10-18T18:42:32.363Z,112.05
2022-10-18T18:44:59.509Z,102.30
2022-10-18T18:47:27.651Z,116.80
2022-10-18T18:49:54.489Z,115.97
2022-10-18T18:52:21.461Z,117.68
2022-10-18T18:54:48.574Z,115.88
2022-10-18T18:57:16.912Z,113.65
2022-10-18T18:59:43.797Z,114.85
2022-10-18T19:02:10.927Z,109.20
2022-10-18T19:04:38.054Z,111.55
2022-10-18T19:07:04.903Z,103.50
2022-10-18T19:09:32.750Z,104.80
2022-10-18T19:11:59.589Z,107.25
2022-10-18T19:14:26.446Z,96.90
2022-10-18T19:16:55.115Z,97.57
2022-10-18T19:19:23.700Z,93.37
2022-10-18T19:21:52.967Z,117.30
2022-10-18T19:24:21.764Z,112.47
2022-10-18T19:26:59.534Z,111.22
2022-10-18T19:29:32.164Z,140.73
2022-10-18T19:32:01.195Z,107.28
2022-10-18T19:34:48.070Z,115.78
2022-10-18T19:37:15.620Z,115.03
2022-10-18T19:39:42.898Z,106.07
2022-10-18T19:42:17.422Z,107.10
2022-10-18T19:44:47.685Z,97.70
2022-10-18T19:47:14.675Z,96.00
2022-10-18T19:49:44.601Z,88.97
2022-10-18T19:52:12.446Z,95.00
2022-10-18T19:54:39.656Z,89.60
2022-10-18T19:57:06.956Z,73.65
2022-10-18T19:59:35.902Z,89.00
2022-10-18T20:02:04.914Z,80.20
2022-10-18T20:04:34.757Z,76.75
2022-10-18T20:07:02.801Z,66.65
2022-10-18T20:09:29.828Z,60.55
2022-10-18T20:11:56.958Z,71.53
2022-10-18T20:14:23.890Z,65.43
2022-10-18T20:16:50.727Z,69.43
2022-10-18T20:19:17.813Z,73.75
2022-10-18T20:21:44.673Z,62.08
2022-10-18T20:24:11.870Z,75.15
2022-10-18T20:26:39.638Z,78.15
2022-10-18T20:29:07.742Z,91.68
2022-10-18T20:31:37.142Z,101.93
2022-10-18T20:34:09.977Z,101.95
2022-10-18T20:36:36.942Z,91.68
2022-10-18T20:39:04.938Z,103.03
2022-10-18T20:41:34.251Z,80.50
2022-10-18T20:44:04.546Z,106.65
2022-10-18T20:46:34.378Z,88.50
2022-10-18T20:49:01.524Z,86.78
2022-10-18T20:51:28.431Z,94.62
2022-10-18T20:53:55.541Z,92.72
2022-10-18T20:56:25.246Z,90.47
2022-10-18T20:58:54.885Z,84.62
2022-10-18T21:01:23.157Z,88.80
2022-10-18T21:03:51.851Z,89.10
2022-10-18T21:06:21.422Z,82.30
2022-10-18T21:09:01.742Z,79.87
2022-10-18T21:11:29.923Z,80.78
2022-10-18T21:14:02.764Z,80.12
2022-10-18T21:16:34.357Z,67.65
2022-10-18T21:19:22.687Z,77.65
2022-10-18T21:21:56.393Z,93.50
2022-10-18T21:24:24.750Z,81.90
2022-10-18T21:26:51.644Z,85.72
2022-10-18T21:29:22.783Z,79.65
2022-10-18T21:31:55.225Z,101.65
2022-10-18T21:34:22.280Z,82.03
2022-10-18T21:36:52.073Z,74.50
2022-10-18T21:41:51.128Z,75.05
2022-10-18T21:44:21.187Z,65.57
2022-10-18T21:46:51.166Z,68.97
2022-10-18T21:49:23.385Z,63.42
2022-10-18T21:51:50.690Z,72.37
2022-10-18T21:54:20.453Z,63.50
2022-10-18T21:56:51.147Z,71.33
2022-10-18T21:59:18.283Z,70.05
2022-10-18T22:01:48.015Z,81.15
2022-10-18T22:04:22.684Z,73.90
2022-10-18T22:06:50.007Z,71.60
2022-10-18T22:09:21.307Z,68.72
2022-10-18T22:11:52.919Z,76.07
2022-10-18T22:14:23.418Z,69.62
2022-10-18T22:16:50.795Z,68.35
2022-10-18T22:19:20.827Z,68.30
2022-10-18T22:21:50.990Z,66.47
2022-10-18T22:24:20.722Z,66.67
2022-10-18T22:26:51.176Z,88.10
2022-10-18T22:29:21.597Z,95.85
2022-10-18T22:34:27.560Z,93.68
2022-10-18T22:36:54.793Z,91.05
2022-10-18T22:39:21.861Z,83.82
2022-10-18T22:41:55.872Z,87.50
2022-10-18T22:44:23.482Z,83.82
2022-10-18T22:46:50.346Z,81.95
2022-10-18T22:49:20.298Z,79.32
2022-10-18T22:51:50.255Z,78.80
2022-10-18T22:54:19.883Z,66.50
2022-10-18T22:56:50.183Z,69.30
2022-10-18T22:59:20.320Z,66.55
2022-10-18T23:01:47.195Z,58.00
2022-10-18T23:04:14.047Z,73.65
2022-10-18T23:06:41.249Z,56.33
2022-10-18T23:09:10.670Z,51.22
2022-10-18T23:11:37.914Z,56.40
2022-10-18T23:14:06.159Z,56.28
2022-10-18T23:16:33.022Z,49.33
2022-10-18T23:18:59.890Z,60.83
2022-10-18T23:21:28.232Z,55.58
2022-10-18T23:23:55.683Z,51.97
2022-10-18T23:26:24.970Z,48.85
2022-10-18T23:28:53.247Z,60.45
2022-10-18T23:31:25.281Z,49.53
2022-10-18T23:33:54.152Z,42.30
2022-10-18T23:36:22.275Z,58.78
2022-10-18T23:38:49.440Z,61.65
2022-10-18T23:41:17.254Z,50.20
2022-10-18T23:43:44.701Z,61.08
2022-10-18T23:46:11.851Z,54.20
2022-10-18T23:48:39.175Z,53.95
2022-10-18T23:51:07.597Z,42.38
2022-10-18T23:53:34.628Z,57.78
2022-10-18T23:56:10.558Z,53.33
2022-10-18T23:58:37.857Z,50.58
